sensor_id;sensor_type;location;lat;lon;timestamp;temperature;humidity
40123;DHT22;25832;45.490;4.912;2022-12-18T00:00:42;-1.40;99.90
40123;DHT22;25832;45.490;4.912;2022-12-18T00:03:09;-1.40;99.90
40123;DHT22;25832;45.490;4.912;2022-12-18T00:05:35;-1.40;99.90
40123;DHT22;25832;45.490;4.912;2022-12-18T00:08:01;-1.50;99.90
40123;DHT22;25832;45.490;4.912;2022-12-18T00:10:28;-1.40;99.90
40123;DHT22;25832;45.490;4.912;2022-12-18T00:12:54;-1.40;99.90
40123;DHT22;25832;45.490;4.912;2022-12-18T00:15:19;-1.40;99.90
40123;DHT22;25832;45.490;4.912;2022-12-18T00:17:45;-1.40;99.90
40123;DHT22;25832;45.490;4.912;2022-12-18T00:20:11;-1.40;99.90
40123;DHT22;25832;45.490;4.912;2022-12-18T00:22:37;-1.40;99.90
40123;DHT22;25832;45.490;4.912;2022-12-18T00:25:03;-1.40;99.90
40123;DHT22;25832;45.490;4.912;2022-12-18T00:27:28;-1.40;99.90
40123;DHT22;25832;45.490;4.912;2022-12-18T00:29:54;-1.40;99.90
40123;DHT22;25832;45.490;4.912;2022-12-18T00:32:20;-1.40;99.90
40123;DHT22;25832;45.490;4.912;2022-12-18T00:34:45;-1.40;99.90
40123;DHT22;25832;45.490;4.912;2022-12-18T00:37:11;-1.40;99.90
40123;DHT22;25832;45.490;4.912;2022-12-18T00:39:36;-1.30;99.90
40123;DHT22;25832;45.490;4.912;2022-12-18T00:42:02;-1.30;99.90
40123;DHT22;25832;45.490;4.912;2022-12-18T00:44:46;-1.30;99.90
40123;DHT22;25832;45.490;4.912;2022-12-18T00:47:12;-1.30;99.90
40123;DHT22;25832;45.490;4.912;2022-12-18T00:49:38;-1.20;99.90
40123;DHT22;25832;45.490;4.912;2022-12-18T00:52:03;-1.20;99.90
40123;DHT22;25832;45.490;4.912;2022-12-18T00:54:29;-1.20;99.90
40123;DHT22;25832;45.490;4.912;2022-12-18T00:56:55;-1.20;99.90
40123;DHT22;25832;45.490;4.912;2022-12-18T00:59:21;-1.20;99.90
40123;DHT22;25832;45.490;4.912;2022-12-18T01:01:47;-1.20;99.90
40123;DHT22;25832;45.490;4.912;2022-12-18T01:04:13;-1.20;99.90
40123;DHT22;25832;45.490;4.912;2022-12-18T01:06:38;-1.10;99.90
40123;DHT22;25832;45.490;4.912;2022-12-18T01:09:05;-1.10;99.90
40123;DHT22;25832;45.490;4.912;2022-12-18T01:11:31;-1.10;99.90
40123;DHT22;25832;45.490;4.912;2022-12-18T01:13:56;-1.00;99.90
40123;DHT22;25832;45.490;4.912;2022-12-18T01:16:25;-1.00;99.90
40123;DHT22;25832;45.490;4.912;2022-12-18T01:18:54;-1.00;99.90
40123;DHT22;25832;45.490;4.912;2022-12-18T01:21:20;-1.00;99.90
40123;DHT22;25832;45.490;4.912;2022-12-18T01:23:46;-1.00;99.90
40123;DHT22;25832;45.490;4.912;2022-12-18T01:26:14;-1.00;99.90
40123;DHT22;25832;45.490;4.912;2022-12-18T01:28:41;-1.00;99.90
40123;DHT22;25832;45.490;4.912;2022-12-18T01:31:18;-1.00;99.90
40123;DHT22;25832;45.490;4.912;2022-12-18T01:33:45;-1.00;99.90
40123;DHT22;25832;45.490;4.912;2022-12-18T01:38:47;-1.00;99.90
40123;DHT22;25832;45.490;4.912;2022-12-18T01:41:13;-1.00;99.90
40123;DHT22;25832;45.490;4.912;2022-12-18T01:43:55;-1.00;99.90
40123;DHT22;25832;45.490;4.912;2022-12-18T01:46:23;-1.10;99.90
40123;DHT22;25832;45.490;4.912;2022-12-18T01:48:58;-1.00;99.90
40123;DHT22;25832;45.490;4.912;2022-12-18T01:51:26;-1.10;99.90
40123;DHT22;25832;45.490;4.912;2022-12-18T01:53:52;-1.10;99.90
40123;DHT22;25832;45.490;4.912;2022-12-18T01:56:20;-1.10;99.90
40123;DHT22;25832;45.490;4.912;2022-12-18T02:01:16;-1.10;99.90
40123;DHT22;25832;45.490;4.912;2022-12-18T02:03:43;-1.10;99.90
40123;DHT22;25832;45.490;4.912;2022-12-18T02:06:23;-1.00;99.90
40123;DHT22;25832;45.490;4.912;2022-12-18T02:09:12;-1.10;99.90
40123;DHT22;25832;45.490;4.912;2022-12-18T02:11:54;-1.10;99.90
40123;DHT22;25832;45.490;4.912;2022-12-18T02:14:31;-1.10;99.90
40123;DHT22;25832;45.490;4.912;2022-12-18T02:17:19;-1.10;99.90
40123;DHT22;25832;45.490;4.912;2022-12-18T02:27:48;-1.10;99.90
40123;DHT22;25832;45.490;4.912;2022-12-18T02:30:15;-1.10;99.90
40123;DHT22;25832;45.490;4.912;2022-12-18T02:32:45;-1.10;99.90
40123;DHT22;25832;45.490;4.912;2022-12-18T02:35:16;-1.10;99.90
40123;DHT22;25832;45.490;4.912;2022-12-18T02:37:45;-1.20;99.90
40123;DHT22;25832;45.490;4.912;2022-12-18T02:40:14;-1.10;99.90
40123;DHT22;25832;45.490;4.912;2022-12-18T02:42:41;-1.20;99.90
40123;DHT22;25832;45.490;4.912;2022-12-18T02:45:07;-1.10;99.90
40123;DHT22;25832;45.490;4.912;2022-12-18T02:47:36;-1.20;99.90
40123;DHT22;25832;45.490;4.912;2022-12-18T02:53:31;-1.20;99.90
40123;DHT22;25832;45.490;4.912;2022-12-18T02:59:00;-1.20;99.90
40123;DHT22;25832;45.490;4.912;2022-12-18T03:01:38;-1.20;99.90
40123;DHT22;25832;45.490;4.912;2022-12-18T03:04:09;-1.20;99.90
40123;DHT22;25832;45.490;4.912;2022-12-18T03:06:43;-1.20;99.90
40123;DHT22;25832;45.490;4.912;2022-12-18T03:09:14;-1.20;99.90
40123;DHT22;25832;45.490;4.912;2022-12-18T03:11:43;-1.20;99.90
40123;DHT22;25832;45.490;4.912;2022-12-18T03:14:32;-1.20;99.90
40123;DHT22;25832;45.490;4.912;2022-12-18T03:17:01;-1.20;99.90
40123;DHT22;25832;45.490;4.912;2022-12-18T03:19:29;-1.10;99.90
40123;DHT22;25832;45.490;4.912;2022-12-18T03:21:58;-1.20;99.90
40123;DHT22;25832;45.490;4.912;2022-12-18T03:24:28;-1.10;99.90
40123;DHT22;25832;45.490;4.912;2022-12-18T03:26:58;-1.10;99.90
40123;DHT22;25832;45.490;4.912;2022-12-18T03:29:52;-1.10;99.90
40123;DHT22;25832;45.490;4.912;2022-12-18T03:32:27;-1.10;99.90
40123;DHT22;25832;45.490;4.912;2022-12-18T03:34:58;-1.10;99.90
40123;DHT22;25832;45.490;4.912;2022-12-18T03:37:26;-1.10;99.90
40123;DHT22;25832;45.490;4.912;2022-12-18T03:39:52;-1.10;99.90
40123;DHT22;25832;45.490;4.912;2022-12-18T03:48:04;-1.10;99.90
40123;DHT22;25832;45.490;4.912;2022-12-18T03:53:25;-1.00;99.90
40123;DHT22;25832;45.490;4.912;2022-12-18T03:55:53;-1.10;99.90
40123;DHT22;25832;45.490;4.912;2022-12-18T03:58:23;-1.10;99.90
40123;DHT22;25832;45.490;4.912;2022-12-18T04:00:52;-1.00;99.90
40123;DHT22;25832;45.490;4.912;2022-12-18T04:03:20;-1.00;99.90
40123;DHT22;25832;45.490;4.912;2022-12-18T04:05:48;-1.00;99.90
40123;DHT22;25832;45.490;4.912;2022-12-18T04:08:16;-1.00;99.90
40123;DHT22;25832;45.490;4.912;2022-12-18T04:10:41;-1.00;99.90
40123;DHT22;25832;45.490;4.912;2022-12-18T04:13:08;-1.00;99.90
40123;DHT22;25832;45.490;4.912;2022-12-18T04:15:35;-1.00;99.90
40123;DHT22;25832;45.490;4.912;2022-12-18T04:18:02;-1.10;99.90
40123;DHT22;25832;45.490;4.912;2022-12-18T04:20:28;-1.00;99.90
40123;DHT22;25832;45.490;4.912;2022-12-18T04:22:54;-1.00;99.90
40123;DHT22;25832;45.490;4.912;2022-12-18T04:25:19;-1.00;99.90
40123;DHT22;25832;45.490;4.912;2022-12-18T04:27:45;-0.90;99.90
40123;DHT22;25832;45.490;4.912;2022-12-18T04:30:11;-0.90;99.90
40123;DHT22;25832;45.490;4.912;2022-12-18T04:32:37;-0.90;99.90
40123;DHT22;25832;45.490;4.912;2022-12-18T04:35:03;-0.90;99.90
40123;DHT22;25832;45.490;4.912;2022-12-18T04:37:30;-0.90;99.90
40123;DHT22;25832;45.490;4.912;2022-12-18T04:39:55;-1.00;99.90
40123;DHT22;25832;45.490;4.912;2022-12-18T04:42:21;-1.00;99.90
40123;DHT22;25832;45.490;4.912;2022-12-18T04:44:47;-0.90;99.90
40123;DHT22;25832;45.490;4.912;2022-12-18T04:47:12;-0.90;99.90
40123;DHT22;25832;45.490;4.912;2022-12-18T04:49:38;-0.80;99.90
40123;DHT22;25832;45.490;4.912;2022-12-18T04:52:04;-0.80;99.90
40123;DHT22;25832;45.490;4.912;2022-12-18T04:54:32;-0.80;99.90
40123;DHT22;25832;45.490;4.912;2022-12-18T04:56:58;-0.80;99.90
40123;DHT22;25832;45.490;4.912;2022-12-18T04:59:23;-0.80;99.90
40123;DHT22;25832;45.490;4.912;2022-12-18T05:01:49;-0.80;99.90
40123;DHT22;25832;45.490;4.912;2022-12-18T05:04:14;-0.70;99.90
40123;DHT22;25832;45.490;4.912;2022-12-18T05:06:40;-0.80;99.90
40123;DHT22;25832;45.490;4.912;2022-12-18T05:09:06;-0.80;99.90
40123;DHT22;25832;45.490;4.912;2022-12-18T05:11:31;-0.80;99.90
40123;DHT22;25832;45.490;4.912;2022-12-18T05:13:57;-0.90;99.90
40123;DHT22;25832;45.490;4.912;2022-12-18T05:16:23;-0.90;99.90
40123;DHT22;25832;45.490;4.912;2022-12-18T05:18:48;-0.90;99.90
40123;DHT22;25832;45.490;4.912;2022-12-18T05:21:14;-0.90;99.90
40123;DHT22;25832;45.490;4.912;2022-12-18T05:23:40;-0.80;99.90
40123;DHT22;25832;45.490;4.912;2022-12-18T05:26:06;-0.80;99.90
40123;DHT22;25832;45.490;4.912;2022-12-18T05:28:34;-0.80;99.90
40123;DHT22;25832;45.490;4.912;2022-12-18T05:31:02;-0.80;99.90
40123;DHT22;25832;45.490;4.912;2022-12-18T05:33:31;-0.90;99.90
40123;DHT22;25832;45.490;4.912;2022-12-18T05:35:59;-0.90;99.90
40123;DHT22;25832;45.490;4.912;2022-12-18T05:38:29;-0.90;99.90
40123;DHT22;25832;45.490;4.912;2022-12-18T05:40:55;-0.90;99.90
40123;DHT22;25832;45.490;4.912;2022-12-18T05:43:22;-0.90;99.90
40123;DHT22;25832;45.490;4.912;2022-12-18T05:45:48;-1.00;99.90
40123;DHT22;25832;45.490;4.912;2022-12-18T05:48:15;-0.90;99.90
40123;DHT22;25832;45.490;4.912;2022-12-18T05:50:42;-0.90;99.90
40123;DHT22;25832;45.490;4.912;2022-12-18T05:53:08;-0.90;99.90
40123;DHT22;25832;45.490;4.912;2022-12-18T05:55:39;-1.00;99.90
40123;DHT22;25832;45.490;4.912;2022-12-18T05:58:06;-1.00;99.90
40123;DHT22;25832;45.490;4.912;2022-12-18T06:00:34;-0.90;99.90
40123;DHT22;25832;45.490;4.912;2022-12-18T06:03:01;-1.00;99.90
40123;DHT22;25832;45.490;4.912;2022-12-18T06:05:27;-0.90;99.90
40123;DHT22;25832;45.490;4.912;2022-12-18T06:07:52;-1.00;99.90
40123;DHT22;25832;45.490;4.912;2022-12-18T06:10:18;-1.00;99.90
40123;DHT22;25832;45.490;4.912;2022-12-18T06:12:44;-1.10;99.90
40123;DHT22;25832;45.490;4.912;2022-12-18T06:15:10;-1.00;99.90
40123;DHT22;25832;45.490;4.912;2022-12-18T06:17:36;-1.00;99.90
40123;DHT22;25832;45.490;4.912;2022-12-18T06:20:03;-1.00;99.90
40123;DHT22;25832;45.490;4.912;2022-12-18T06:22:31;-1.10;99.90
40123;DHT22;25832;45.490;4.912;2022-12-18T06:24:57;-1.10;99.90
40123;DHT22;25832;45.490;4.912;2022-12-18T06:27:23;-1.20;99.90
40123;DHT22;25832;45.490;4.912;2022-12-18T06:29:48;-1.10;99.90
40123;DHT22;25832;45.490;4.912;2022-12-18T06:32:14;-1.10;99.90
40123;DHT22;25832;45.490;4.912;2022-12-18T06:34:39;-1.10;99.90
40123;DHT22;25832;45.490;4.912;2022-12-18T06:37:05;-1.10;99.90
40123;DHT22;25832;45.490;4.912;2022-12-18T06:39:31;-1.10;99.90
40123;DHT22;25832;45.490;4.912;2022-12-18T06:41:56;-1.20;99.90
40123;DHT22;25832;45.490;4.912;2022-12-18T06:44:22;-1.20;99.90
40123;DHT22;25832;45.490;4.912;2022-12-18T06:46:48;-1.20;99.90
40123;DHT22;25832;45.490;4.912;2022-12-18T06:49:13;-1.20;99.90
40123;DHT22;25832;45.490;4.912;2022-12-18T06:51:39;-1.20;99.90
40123;DHT22;25832;45.490;4.912;2022-12-18T06:54:05;-1.20;99.90
40123;DHT22;25832;45.490;4.912;2022-12-18T06:56:30;-1.20;99.90
40123;DHT22;25832;45.490;4.912;2022-12-18T06:58:56;-1.30;99.90
40123;DHT22;25832;45.490;4.912;2022-12-18T07:01:22;-1.20;99.90
40123;DHT22;25832;45.490;4.912;2022-12-18T07:03:55;-1.20;99.90
40123;DHT22;25832;45.490;4.912;2022-12-18T07:06:23;-1.20;99.90
40123;DHT22;25832;45.490;4.912;2022-12-18T07:08:50;-1.20;99.90
40123;DHT22;25832;45.490;4.912;2022-12-18T07:11:17;-1.30;99.90
40123;DHT22;25832;45.490;4.912;2022-12-18T07:13:44;-1.30;99.90
40123;DHT22;25832;45.490;4.912;2022-12-18T07:16:13;-1.30;99.90
40123;DHT22;25832;45.490;4.912;2022-12-18T07:18:38;-1.30;99.90
40123;DHT22;25832;45.490;4.912;2022-12-18T07:21:10;-1.30;99.90
40123;DHT22;25832;45.490;4.912;2022-12-18T07:23:36;-1.30;99.90
40123;DHT22;25832;45.490;4.912;2022-12-18T07:26:07;-1.30;99.90
40123;DHT22;25832;45.490;4.912;2022-12-18T07:28:34;-1.30;99.90
40123;DHT22;25832;45.490;4.912;2022-12-18T07:31:08;-1.30;99.90
40123;DHT22;25832;45.490;4.912;2022-12-18T07:33:34;-1.30;99.90
40123;DHT22;25832;45.490;4.912;2022-12-18T07:36:04;-1.30;99.90
40123;DHT22;25832;45.490;4.912;2022-12-18T07:38:31;-1.30;99.90
40123;DHT22;25832;45.490;4.912;2022-12-18T07:41:11;-1.30;99.90
40123;DHT22;25832;45.490;4.912;2022-12-18T07:43:38;-1.30;99.90
40123;DHT22;25832;45.490;4.912;2022-12-18T07:46:04;-1.30;99.90
40123;DHT22;25832;45.490;4.912;2022-12-18T07:48:30;-1.30;99.90
40123;DHT22;25832;45.490;4.912;2022-12-18T07:51:00;-1.30;99.90
40123;DHT22;25832;45.490;4.912;2022-12-18T07:53:26;-1.20;99.90
40123;DHT22;25832;45.490;4.912;2022-12-18T07:55:59;-1.20;99.90
40123;DHT22;25832;45.490;4.912;2022-12-18T07:58:26;-1.20;99.90
40123;DHT22;25832;45.490;4.912;2022-12-18T08:00:52;-1.20;99.90
40123;DHT22;25832;45.490;4.912;2022-12-18T08:03:18;-1.20;99.90
40123;DHT22;25832;45.490;4.912;2022-12-18T08:05:44;-1.20;99.90
40123;DHT22;25832;45.490;4.912;2022-12-18T08:08:10;-1.20;99.90
40123;DHT22;25832;45.490;4.912;2022-12-18T08:10:37;-1.20;99.90
40123;DHT22;25832;45.490;4.912;2022-12-18T08:13:03;-1.10;99.90
40123;DHT22;25832;45.490;4.912;2022-12-18T08:15:29;-1.10;99.90
40123;DHT22;25832;45.490;4.912;2022-12-18T08:17:57;-1.00;99.90
40123;DHT22;25832;45.490;4.912;2022-12-18T08:20:23;-1.10;99.90
40123;DHT22;25832;45.490;4.912;2022-12-18T08:22:49;-1.00;99.90
40123;DHT22;25832;45.490;4.912;2022-12-18T08:25:14;-1.00;99.90
40123;DHT22;25832;45.490;4.912;2022-12-18T08:27:40;-0.90;99.90
40123;DHT22;25832;45.490;4.912;2022-12-18T08:30:06;-0.90;99.90
40123;DHT22;25832;45.490;4.912;2022-12-18T08:32:32;-0.70;99.90
40123;DHT22;25832;45.490;4.912;2022-12-18T08:34:58;-0.70;99.90
40123;DHT22;25832;45.490;4.912;2022-12-18T08:37:24;-0.70;99.90
40123;DHT22;25832;45.490;4.912;2022-12-18T08:39:50;-0.60;99.90
40123;DHT22;25832;45.490;4.912;2022-12-18T08:42:16;-0.60;99.90
40123;DHT22;25832;45.490;4.912;2022-12-18T08:45:00;-0.50;99.90
40123;DHT22;25832;45.490;4.912;2022-12-18T08:47:26;-0.40;99.90
40123;DHT22;25832;45.490;4.912;2022-12-18T08:49:52;-0.30;99.90
40123;DHT22;25832;45.490;4.912;2022-12-18T08:52:17;-0.20;99.90
40123;DHT22;25832;45.490;4.912;2022-12-18T08:54:43;-0.20;99.90
40123;DHT22;25832;45.490;4.912;2022-12-18T08:57:09;-0.10;99.90
40123;DHT22;25832;45.490;4.912;2022-12-18T08:59:34;0.00;99.90
40123;DHT22;25832;45.490;4.912;2022-12-18T09:02:00;0.10;99.90
40123;DHT22;25832;45.490;4.912;2022-12-18T09:04:26;0.30;99.90
40123;DHT22;25832;45.490;4.912;2022-12-18T09:06:51;0.40;99.90
40123;DHT22;25832;45.490;4.912;2022-12-18T09:09:20;0.50;99.90
40123;DHT22;25832;45.490;4.912;2022-12-18T09:11:45;0.60;99.90
40123;DHT22;25832;45.490;4.912;2022-12-18T09:14:11;0.70;99.90
40123;DHT22;25832;45.490;4.912;2022-12-18T09:16:37;0.80;99.90
40123;DHT22;25832;45.490;4.912;2022-12-18T09:19:04;0.90;99.90
40123;DHT22;25832;45.490;4.912;2022-12-18T09:21:34;1.00;99.90
40123;DHT22;25832;45.490;4.912;2022-12-18T09:24:04;1.10;99.90
40123;DHT22;25832;45.490;4.912;2022-12-18T09:26:30;1.20;99.90
40123;DHT22;25832;45.490;4.912;2022-12-18T09:28:56;1.30;99.90
40123;DHT22;25832;45.490;4.912;2022-12-18T09:31:23;1.30;99.90
40123;DHT22;25832;45.490;4.912;2022-12-18T09:33:49;1.40;99.90
40123;DHT22;25832;45.490;4.912;2022-12-18T09:36:17;1.50;99.90
40123;DHT22;25832;45.490;4.912;2022-12-18T09:38:43;1.60;99.90
40123;DHT22;25832;45.490;4.912;2022-12-18T09:44:36;1.80;99.90
40123;DHT22;25832;45.490;4.912;2022-12-18T09:47:14;1.90;99.90
40123;DHT22;25832;45.490;4.912;2022-12-18T09:49:45;2.00;99.90
40123;DHT22;25832;45.490;4.912;2022-12-18T09:52:12;2.20;99.90
40123;DHT22;25832;45.490;4.912;2022-12-18T09:54:40;2.30;99.90
40123;DHT22;25832;45.490;4.912;2022-12-18T09:57:19;2.40;99.90
40123;DHT22;25832;45.490;4.912;2022-12-18T10:02:58;2.50;99.90
40123;DHT22;25832;45.490;4.912;2022-12-18T10:08:08;2.70;99.90
40123;DHT22;25832;45.490;4.912;2022-12-18T10:10:57;2.80;99.90
40123;DHT22;25832;45.490;4.912;2022-12-18T10:13:38;2.80;99.90
40123;DHT22;25832;45.490;4.912;2022-12-18T10:16:16;2.90;99.90
40123;DHT22;25832;45.490;4.912;2022-12-18T10:21:39;3.10;99.90
40123;DHT22;25832;45.490;4.912;2022-12-18T10:24:30;3.20;99.90
40123;DHT22;25832;45.490;4.912;2022-12-18T10:27:30;3.30;99.90
40123;DHT22;25832;45.490;4.912;2022-12-18T10:29:56;3.50;99.90
40123;DHT22;25832;45.490;4.912;2022-12-18T10:32:28;3.70;99.90
40123;DHT22;25832;45.490;4.912;2022-12-18T10:34:56;3.80;99.90
40123;DHT22;25832;45.490;4.912;2022-12-18T10:37:25;4.00;99.90
40123;DHT22;25832;45.490;4.912;2022-12-18T10:40:17;4.10;99.90
40123;DHT22;25832;45.490;4.912;2022-12-18T10:42:43;4.20;99.90
40123;DHT22;25832;45.490;4.912;2022-12-18T10:45:17;4.30;99.90
40123;DHT22;25832;45.490;4.912;2022-12-18T10:47:47;4.40;99.90
40123;DHT22;25832;45.490;4.912;2022-12-18T10:50:35;4.40;99.90
40123;DHT22;25832;45.490;4.912;2022-12-18T10:53:04;4.50;99.90
40123;DHT22;25832;45.490;4.912;2022-12-18T10:55:38;4.60;99.90
40123;DHT22;25832;45.490;4.912;2022-12-18T11:01:12;4.80;99.90
40123;DHT22;25832;45.490;4.912;2022-12-18T11:03:46;4.90;99.90
40123;DHT22;25832;45.490;4.912;2022-12-18T11:06:24;5.20;99.90
40123;DHT22;25832;45.490;4.912;2022-12-18T11:09:06;5.40;99.90
40123;DHT22;25832;45.490;4.912;2022-12-18T11:11:49;5.60;99.90
40123;DHT22;25832;45.490;4.912;2022-12-18T11:14:22;5.80;99.90
40123;DHT22;25832;45.490;4.912;2022-12-18T11:16:50;5.90;99.90
40123;DHT22;25832;45.490;4.912;2022-12-18T11:19:36;6.10;99.90
40123;DHT22;25832;45.490;4.912;2022-12-18T11:22:24;6.20;99.90
40123;DHT22;25832;45.490;4.912;2022-12-18T11:27:38;6.50;99.90
40123;DHT22;25832;45.490;4.912;2022-12-18T11:30:10;6.50;99.90
40123;DHT22;25832;45.490;4.912;2022-12-18T11:32:51;6.60;99.90
40123;DHT22;25832;45.490;4.912;2022-12-18T11:35:25;6.70;99.90
40123;DHT22;25832;45.490;4.912;2022-12-18T11:37:59;6.80;99.90
40123;DHT22;25832;45.490;4.912;2022-12-18T11:40:36;6.80;99.90
40123;DHT22;25832;45.490;4.912;2022-12-18T11:43:10;6.80;99.90
40123;DHT22;25832;45.490;4.912;2022-12-18T11:48:34;7.00;99.90
40123;DHT22;25832;45.490;4.912;2022-12-18T11:51:05;7.20;99.90
40123;DHT22;25832;45.490;4.912;2022-12-18T11:53:35;7.30;99.90
40123;DHT22;25832;45.490;4.912;2022-12-18T12:06:56;7.70;99.90
40123;DHT22;25832;45.490;4.912;2022-12-18T12:18:13;8.10;99.90
40123;DHT22;25832;45.490;4.912;2022-12-18T12:21:05;8.20;99.90
40123;DHT22;25832;45.490;4.912;2022-12-18T12:26:42;8.40;99.90
40123;DHT22;25832;45.490;4.912;2022-12-18T12:37:38;8.80;99.90
40123;DHT22;25832;45.490;4.912;2022-12-18T12:40:04;8.80;99.90
40123;DHT22;25832;45.490;4.912;2022-12-18T12:42:58;8.90;99.90
40123;DHT22;25832;45.490;4.912;2022-12-18T12:48:51;9.00;99.90
40123;DHT22;25832;45.490;4.912;2022-12-18T12:51:38;9.00;99.90
40123;DHT22;25832;45.490;4.912;2022-12-18T12:54:11;9.10;99.90
40123;DHT22;25832;45.490;4.912;2022-12-18T12:56:51;9.20;99.90
40123;DHT22;25832;45.490;4.912;2022-12-18T12:59:36;9.30;99.90
40123;DHT22;25832;45.490;4.912;2022-12-18T13:04:57;9.40;99.90
40123;DHT22;25832;45.490;4.912;2022-12-18T13:07:29;9.40;99.90
40123;DHT22;25832;45.490;4.912;2022-12-18T13:17:49;9.40;99.90
40123;DHT22;25832;45.490;4.912;2022-12-18T13:20:33;9.50;99.90
40123;DHT22;25832;45.490;4.912;2022-12-18T13:23:00;9.60;99.90
40123;DHT22;25832;45.490;4.912;2022-12-18T13:25:37;9.70;99.90
40123;DHT22;25832;45.490;4.912;2022-12-18T13:28:09;9.70;99.90
40123;DHT22;25832;45.490;4.912;2022-12-18T13:38:36;10.00;99.90
40123;DHT22;25832;45.490;4.912;2022-12-18T13:41:20;10.10;99.90
40123;DHT22;25832;45.490;4.912;2022-12-18T13:43:52;10.20;99.90
40123;DHT22;25832;45.490;4.912;2022-12-18T13:46:43;10.20;99.90
40123;DHT22;25832;45.490;4.912;2022-12-18T13:51:44;10.30;99.90
40123;DHT22;25832;45.490;4.912;2022-12-18T13:54:41;10.30;99.90
40123;DHT22;25832;45.490;4.912;2022-12-18T13:57:43;10.30;99.90
40123;DHT22;25832;45.490;4.912;2022-12-18T14:00:29;10.30;99.90
40123;DHT22;25832;45.490;4.912;2022-12-18T14:02:56;10.30;99.90
40123;DHT22;25832;45.490;4.912;2022-12-18T14:05:31;10.30;99.90
40123;DHT22;25832;45.490;4.912;2022-12-18T14:08:06;10.30;99.90
40123;DHT22;25832;45.490;4.912;2022-12-18T14:10:33;10.30;99.90
40123;DHT22;25832;45.490;4.912;2022-12-18T14:13:08;10.40;99.90
40123;DHT22;25832;45.490;4.912;2022-12-18T14:15:40;10.30;99.90
40123;DHT22;25832;45.490;4.912;2022-12-18T14:18:26;10.40;99.90
40123;DHT22;25832;45.490;4.912;2022-12-18T14:20:57;10.40;99.90
40123;DHT22;25832;45.490;4.912;2022-12-18T14:23:32;10.40;99.90
40123;DHT22;25832;45.490;4.912;2022-12-18T14:25:58;10.30;99.90
40123;DHT22;25832;45.490;4.912;2022-12-18T14:28:24;10.30;99.90
40123;DHT22;25832;45.490;4.912;2022-12-18T14:30:51;10.30;99.90
40123;DHT22;25832;45.490;4.912;2022-12-18T14:33:18;10.30;99.90
40123;DHT22;25832;45.490;4.912;2022-12-18T14:36:03;10.30;99.90
40123;DHT22;25832;45.490;4.912;2022-12-18T14:38:38;10.30;99.90
40123;DHT22;25832;45.490;4.912;2022-12-18T14:41:05;10.30;99.90
40123;DHT22;25832;45.490;4.912;2022-12-18T14:43:36;10.20;99.90
40123;DHT22;25832;45.490;4.912;2022-12-18T14:46:03;10.20;99.90
40123;DHT22;25832;45.490;4.912;2022-12-18T14:51:22;10.10;99.90
40123;DHT22;25832;45.490;4.912;2022-12-18T14:58:50;10.00;99.90
40123;DHT22;25832;45.490;4.912;2022-12-18T15:01:18;10.00;99.90
40123;DHT22;25832;45.490;4.912;2022-12-18T15:03:43;10.10;99.90
40123;DHT22;25832;45.490;4.912;2022-12-18T15:06:30;10.10;99.90
40123;DHT22;25832;45.490;4.912;2022-12-18T15:08:57;10.20;99.90
40123;DHT22;25832;45.490;4.912;2022-12-18T15:13:51;10.20;99.90
40123;DHT22;25832;45.490;4.912;2022-12-18T15:16:17;10.20;99.90
40123;DHT22;25832;45.490;4.912;2022-12-18T15:18:43;10.20;99.90
40123;DHT22;25832;45.490;4.912;2022-12-18T15:21:11;10.10;99.90
40123;DHT22;25832;45.490;4.912;2022-12-18T15:26:12;10.10;99.90
40123;DHT22;25832;45.490;4.912;2022-12-18T15:28:53;10.10;99.90
40123;DHT22;25832;45.490;4.912;2022-12-18T15:31:30;10.10;99.90
40123;DHT22;25832;45.490;4.912;2022-12-18T15:36:23;10.10;99.90
40123;DHT22;25832;45.490;4.912;2022-12-18T15:38:51;10.10;99.90
40123;DHT22;25832;45.490;4.912;2022-12-18T15:41:19;10.10;99.90
40123;DHT22;25832;45.490;4.912;2022-12-18T15:43:49;10.10;99.90
40123;DHT22;25832;45.490;4.912;2022-12-18T15:46:19;10.10;99.90
40123;DHT22;25832;45.490;4.912;2022-12-18T15:48:47;10.10;99.90
40123;DHT22;25832;45.490;4.912;2022-12-18T15:51:29;10.10;99.90
40123;DHT22;25832;45.490;4.912;2022-12-18T15:53:59;10.10;99.90
40123;DHT22;25832;45.490;4.912;2022-12-18T15:56:26;10.00;99.90
40123;DHT22;25832;45.490;4.912;2022-12-18T15:59:12;10.00;99.90
40123;DHT22;25832;45.490;4.912;2022-12-18T16:01:38;10.00;99.90
40123;DHT22;25832;45.490;4.912;2022-12-18T16:04:04;10.00;99.90
40123;DHT22;25832;45.490;4.912;2022-12-18T16:06:30;10.00;99.90
40123;DHT22;25832;45.490;4.912;2022-12-18T16:08:55;10.00;99.90
40123;DHT22;25832;45.490;4.912;2022-12-18T16:14:11;9.90;99.90
40123;DHT22;25832;45.490;4.912;2022-12-18T16:16:38;9.90;99.90
40123;DHT22;25832;45.490;4.912;2022-12-18T16:19:03;9.90;99.90
40123;DHT22;25832;45.490;4.912;2022-12-18T16:21:29;9.90;99.90
40123;DHT22;25832;45.490;4.912;2022-12-18T16:23:55;9.90;99.90
40123;DHT22;25832;45.490;4.912;2022-12-18T16:26:20;9.90;99.90
40123;DHT22;25832;45.490;4.912;2022-12-18T16:28:46;10.00;99.90
40123;DHT22;25832;45.490;4.912;2022-12-18T16:31:12;10.00;99.90
40123;DHT22;25832;45.490;4.912;2022-12-18T16:33:37;10.00;99.90
40123;DHT22;25832;45.490;4.912;2022-12-18T16:36:03;9.90;99.90
40123;DHT22;25832;45.490;4.912;2022-12-18T16:38:29;9.90;99.90
40123;DHT22;25832;45.490;4.912;2022-12-18T16:40:54;9.90;99.90
40123;DHT22;25832;45.490;4.912;2022-12-18T16:43:39;9.80;99.90
40123;DHT22;25832;45.490;4.912;2022-12-18T16:46:04;9.80;99.90
40123;DHT22;25832;45.490;4.912;2022-12-18T16:48:30;9.80;99.90
40123;DHT22;25832;45.490;4.912;2022-12-18T16:51:01;9.80;99.90
40123;DHT22;25832;45.490;4.912;2022-12-18T16:53:27;9.80;99.90
40123;DHT22;25832;45.490;4.912;2022-12-18T16:55:56;9.80;99.90
40123;DHT22;25832;45.490;4.912;2022-12-18T16:58:22;9.80;99.90
40123;DHT22;25832;45.490;4.912;2022-12-18T17:00:47;9.80;99.90
40123;DHT22;25832;45.490;4.912;2022-12-18T17:03:13;9.70;99.90
40123;DHT22;25832;45.490;4.912;2022-12-18T17:05:39;9.70;99.90
40123;DHT22;25832;45.490;4.912;2022-12-18T17:08:04;9.70;99.90
40123;DHT22;25832;45.490;4.912;2022-12-18T17:10:30;9.70;99.90
40123;DHT22;25832;45.490;4.912;2022-12-18T17:12:56;9.70;99.90
40123;DHT22;25832;45.490;4.912;2022-12-18T17:15:21;9.70;99.90
40123;DHT22;25832;45.490;4.912;2022-12-18T17:17:48;9.80;99.90
40123;DHT22;25832;45.490;4.912;2022-12-18T17:20:13;9.70;99.90
40123;DHT22;25832;45.490;4.912;2022-12-18T17:22:39;9.70;99.90
40123;DHT22;25832;45.490;4.912;2022-12-18T17:25:05;9.80;99.90
40123;DHT22;25832;45.490;4.912;2022-12-18T17:27:31;9.70;99.90
40123;DHT22;25832;45.490;4.912;2022-12-18T17:29:56;9.70;99.90
40123;DHT22;25832;45.490;4.912;2022-12-18T17:32:22;9.60;99.90
40123;DHT22;25832;45.490;4.912;2022-12-18T17:34:48;9.70;99.90
40123;DHT22;25832;45.490;4.912;2022-12-18T17:37:14;9.60;99.90
40123;DHT22;25832;45.490;4.912;2022-12-18T17:39:40;9.60;99.90
40123;DHT22;25832;45.490;4.912;2022-12-18T17:42:06;9.60;99.90
40123;DHT22;25832;45.490;4.912;2022-12-18T17:44:35;9.60;99.90
40123;DHT22;25832;45.490;4.912;2022-12-18T17:47:01;9.60;99.90
40123;DHT22;25832;45.490;4.912;2022-12-18T17:49:26;9.60;99.90
40123;DHT22;25832;45.490;4.912;2022-12-18T17:51:52;9.60;99.90